📊 Raw Sensor Data
Showing records 48876 to 48900 of 85,109 total
| ID | Distance (ft) | Battery V | Battery A | Int Temp (°F) | Int Humid (%) | Ext Temp (°F) | Solar V | RSSI | SNR | Time Stamp |
|---|---|---|---|---|---|---|---|---|---|---|
| 36246 | -- | 3.98 | -5 | 48 | 41 | 50 | 0.10 | -88 | 8 | 03/28/2025 10:15 PM |
| 36245 | -- | 4.04 | -5 | 48 | 41 | 50 | 0.00 | -98 | 5 | 03/28/2025 10:00 PM |
| 36244 | -- | 3.99 | -5 | 49 | 41 | 50 | 0.00 | -92 | 7 | 03/28/2025 09:46 PM |
| 36243 | -- | 3.99 | -5 | 50 | 42 | 51 | 0.00 | -92 | 5 | 03/28/2025 09:30 PM |
| 36242 | -- | 4.04 | -5 | 50 | 42 | 51 | 0.00 | -91 | 8 | 03/28/2025 09:15 PM |
| 36241 | 15.0 | 3.99 | -5 | 50 | 42 | 51 | 0.00 | -88 | 7 | 03/28/2025 09:00 PM |
| 36240 | -- | 3.99 | -5 | 51 | 42 | 52 | 0.00 | -90 | 7 | 03/28/2025 08:45 PM |
| 36239 | -- | 4.04 | -5 | 51 | 43 | 52 | 0.10 | -97 | 6 | 03/28/2025 08:30 PM |
| 36238 | -- | 3.99 | -5 | 52 | 43 | 53 | 0.00 | -90 | 8 | 03/28/2025 08:16 PM |
| 36237 | -- | 3.99 | -5 | 53 | 44 | 54 | 0.00 | -90 | 8 | 03/28/2025 08:00 PM |
| 36236 | -- | 4.05 | -5 | 53 | 44 | 54 | 0.00 | -89 | 7 | 03/28/2025 07:46 PM |
| 36235 | -- | 4.00 | -5 | 55 | 45 | 54 | 0.90 | -88 | 7 | 03/28/2025 07:30 PM |
| 36234 | -- | 4.00 | -5 | 57 | 44 | 55 | 4.50 | -88 | 7 | 03/28/2025 07:16 PM |
| 36233 | -- | 4.07 | 0 | 59 | 43 | 57 | 4.50 | -90 | 8 | 03/28/2025 07:00 PM |
| 36232 | -- | 4.04 | -17 | 61 | 43 | 57 | 4.50 | -85 | 8 | 03/28/2025 06:45 PM |
| 36231 | -- | 4.12 | 10 | 62 | 43 | 60 | 4.50 | -85 | 8 | 03/28/2025 06:31 PM |
| 36230 | -- | 4.07 | 29 | 62 | 44 | 59 | 4.50 | -85 | 8 | 03/28/2025 06:15 PM |
| 36229 | -- | 4.14 | 22 | 63 | 44 | 59 | 4.50 | -86 | 7 | 03/28/2025 06:00 PM |
| 36228 | -- | 4.03 | 0 | 64 | 44 | 60 | 5.10 | -89 | 7 | 03/28/2025 05:45 PM |
| 36227 | -- | 4.14 | 0 | 67 | 43 | 62 | 5.10 | -87 | 8 | 03/28/2025 05:30 PM |
| 36226 | -- | 4.03 | 0 | 68 | 44 | 61 | 5.10 | -84 | 8 | 03/28/2025 05:15 PM |
| 36225 | -- | 4.04 | 0 | 73 | 41 | 66 | 5.10 | -84 | 8 | 03/28/2025 05:00 PM |
| 36224 | -- | 4.03 | 0 | 70 | 43 | 65 | 5.10 | -82 | 9 | 03/28/2025 04:45 PM |
| 36223 | -- | 4.03 | 0 | 74 | 41 | 64 | 5.10 | -95 | 6 | 03/28/2025 04:30 PM |
| 36222 | -- | 4.03 | 0 | 75 | 40 | 66 | 5.10 | -86 | 6 | 03/28/2025 04:15 PM |